createdAt,value
2023-05-15T00:01:04.270Z,99.90
2023-05-15T00:03:33.423Z,99.90
2023-05-15T00:06:01.870Z,99.90
2023-05-15T00:08:30.258Z,99.90
2023-05-15T00:11:01.700Z,99.90
2023-05-15T00:13:30.686Z,99.90
2023-05-15T00:15:59.092Z,99.90
2023-05-15T00:18:28.967Z,99.90
2023-05-15T00:20:57.390Z,99.90
2023-05-15T00:23:26.027Z,99.90
2023-05-15T00:25:54.371Z,99.90
2023-05-15T00:28:22.780Z,99.90
2023-05-15T00:30:52.023Z,99.90
2023-05-15T00:33:20.680Z,99.90
2023-05-15T00:35:51.078Z,99.90
2023-05-15T00:38:19.417Z,99.90
2023-05-15T00:40:47.999Z,99.90
2023-05-15T00:43:17.272Z,99.90
2023-05-15T00:45:46.472Z,99.90
2023-05-15T00:48:15.092Z,99.90
2023-05-15T00:50:44.158Z,99.90
2023-05-15T00:53:14.059Z,99.90
2023-05-15T00:55:43.460Z,99.90
2023-05-15T00:58:12.183Z,99.90
2023-05-15T01:00:40.760Z,99.90
2023-05-15T01:03:09.641Z,99.90
2023-05-15T01:05:38.300Z,99.90
2023-05-15T01:08:20.318Z,99.90
2023-05-15T01:10:51.054Z,99.90
2023-05-15T01:13:21.878Z,99.90
2023-05-15T01:15:51.173Z,99.90
2023-05-15T01:18:19.669Z,99.90
2023-05-15T01:21:02.248Z,99.90
2023-05-15T01:23:57.494Z,99.90
2023-05-15T01:26:48.693Z,99.90
2023-05-15T01:29:23.080Z,99.90
2023-05-15T01:31:59.070Z,99.90
2023-05-15T01:34:34.233Z,99.90
2023-05-15T01:37:05.229Z,99.90
2023-05-15T01:39:36.951Z,99.90
2023-05-15T01:42:09.458Z,99.90
2023-05-15T01:44:44.572Z,99.90
2023-05-15T01:47:19.074Z,99.90
2023-05-15T01:49:49.153Z,99.90
2023-05-15T01:52:22.452Z,99.90
2023-05-15T01:54:51.584Z,99.90
2023-05-15T01:57:20.843Z,99.90
2023-05-15T01:59:52.559Z,99.90
2023-05-15T02:02:21.844Z,99.90
2023-05-15T02:04:51.596Z,99.90
2023-05-15T02:07:21.837Z,99.90
2023-05-15T02:09:51.049Z,99.90
2023-05-15T02:12:20.849Z,99.90
2023-05-15T02:14:53.363Z,99.90
2023-05-15T02:17:23.929Z,99.90
2023-05-15T02:19:52.619Z,99.90
2023-05-15T02:22:20.942Z,99.90
2023-05-15T02:24:49.293Z,99.90
2023-05-15T02:27:23.902Z,99.90
2023-05-15T02:30:10.187Z,99.90
2023-05-15T02:32:46.787Z,99.90
2023-05-15T02:35:23.336Z,99.90
2023-05-15T02:37:56.260Z,99.90
2023-05-15T02:40:29.382Z,99.90
2023-05-15T02:42:58.997Z,99.90
2023-05-15T02:45:31.112Z,99.90
2023-05-15T02:48:00.723Z,99.90
2023-05-15T02:50:29.683Z,99.90
2023-05-15T02:53:04.111Z,99.90
2023-05-15T02:55:32.681Z,99.90
2023-05-15T02:58:01.220Z,99.90
2023-05-15T03:00:31.092Z,99.90
2023-05-15T03:02:59.544Z,99.90
2023-05-15T03:05:28.148Z,99.90
2023-05-15T03:07:56.747Z,99.90
2023-05-15T03:10:25.100Z,99.90
2023-05-15T03:12:53.368Z,99.90
2023-05-15T03:15:21.711Z,99.90
2023-05-15T03:17:51.495Z,99.90
2023-05-15T03:20:19.898Z,99.90
2023-05-15T03:22:48.330Z,99.90
2023-05-15T03:25:17.884Z,99.90
2023-05-15T03:27:46.384Z,99.90
2023-05-15T03:30:14.835Z,99.90
2023-05-15T03:32:43.317Z,99.90
2023-05-15T03:35:13.549Z,99.90
2023-05-15T03:37:41.870Z,99.90
2023-05-15T03:40:10.935Z,99.90
2023-05-15T03:42:39.759Z,99.90
2023-05-15T03:45:09.669Z,99.90
2023-05-15T03:47:38.207Z,99.90
2023-05-15T03:50:07.535Z,99.90
2023-05-15T03:52:37.805Z,99.90
2023-05-15T03:55:08.278Z,99.90
2023-05-15T03:57:36.828Z,99.90
2023-05-15T04:00:10.203Z,99.90
2023-05-15T04:02:41.865Z,99.90
2023-05-15T04:05:11.278Z,99.90
2023-05-15T04:07:41.087Z,99.90
2023-05-15T04:10:09.939Z,99.90
2023-05-15T04:12:38.316Z,99.90
2023-05-15T04:15:17.384Z,99.90
2023-05-15T04:17:46.706Z,99.90
2023-05-15T04:20:16.286Z,99.90
2023-05-15T04:22:46.727Z,99.90
2023-05-15T04:25:16.354Z,99.90
2023-05-15T04:27:45.155Z,99.90
2023-05-15T04:30:14.296Z,99.90
2023-05-15T04:32:42.940Z,99.90
2023-05-15T04:35:13.600Z,99.90
2023-05-15T04:37:43.111Z,99.90
2023-05-15T04:40:15.006Z,99.90
2023-05-15T04:42:43.756Z,99.90
2023-05-15T04:45:12.317Z,99.90
2023-05-15T04:47:40.673Z,99.90
2023-05-15T04:50:09.757Z,99.90
2023-05-15T04:52:38.934Z,99.90
2023-05-15T04:55:08.707Z,99.90
2023-05-15T04:57:38.556Z,99.90
2023-05-15T05:00:12.187Z,99.90
2023-05-15T05:02:43.171Z,99.90
2023-05-15T05:05:11.865Z,99.90
2023-05-15T05:07:40.461Z,99.90
2023-05-15T05:10:10.287Z,99.90
2023-05-15T05:12:39.944Z,99.90
2023-05-15T05:15:09.624Z,99.90
2023-05-15T05:17:38.014Z,99.90
2023-05-15T05:20:11.841Z,99.90
2023-05-15T05:22:42.592Z,99.90
2023-05-15T05:25:11.692Z,99.90
2023-05-15T05:27:41.392Z,99.90
2023-05-15T05:30:10.798Z,99.90
2023-05-15T05:32:39.428Z,99.90
2023-05-15T05:35:08.121Z,99.90
2023-05-15T05:37:37.567Z,99.90
2023-05-15T05:40:08.883Z,99.90
2023-05-15T05:42:37.248Z,99.90
2023-05-15T05:45:08.171Z,99.90
2023-05-15T05:47:37.064Z,99.90
2023-05-15T05:50:05.915Z,99.90
2023-05-15T05:52:34.690Z,99.90
2023-05-15T05:55:04.356Z,99.90
2023-05-15T05:57:32.953Z,99.90
2023-05-15T06:00:04.154Z,99.90
2023-05-15T06:02:39.361Z,99.90
2023-05-15T06:05:08.715Z,99.90
2023-05-15T06:07:40.298Z,99.90
2023-05-15T06:10:09.815Z,99.90
2023-05-15T06:12:38.962Z,99.90
2023-05-15T06:15:09.052Z,99.90
2023-05-15T06:17:39.495Z,99.90
2023-05-15T06:20:09.485Z,99.90
2023-05-15T06:22:41.567Z,99.90
2023-05-15T06:25:14.263Z,99.90
2023-05-15T06:27:42.814Z,99.90
2023-05-15T06:30:12.304Z,99.90
2023-05-15T06:32:42.693Z,99.90
2023-05-15T06:35:11.742Z,99.90
2023-05-15T06:37:40.247Z,99.90
2023-05-15T06:40:09.772Z,99.90
2023-05-15T06:42:38.134Z,99.90
2023-05-15T06:45:07.777Z,99.90
2023-05-15T06:47:36.089Z,99.90
2023-05-15T06:50:06.748Z,99.90
2023-05-15T06:52:35.225Z,99.90
2023-05-15T06:55:03.589Z,99.90
2023-05-15T06:57:31.970Z,99.90
2023-05-15T07:00:00.322Z,99.90
2023-05-15T07:02:28.722Z,99.90
2023-05-15T07:04:57.113Z,99.90
2023-05-15T07:07:26.838Z,99.90
2023-05-15T07:09:55.163Z,99.90
2023-05-15T07:12:23.443Z,99.90
2023-05-15T07:14:51.749Z,99.90
2023-05-15T07:17:20.369Z,99.90
2023-05-15T07:19:48.724Z,99.90
2023-05-15T07:22:17.014Z,99.90
2023-05-15T07:24:47.821Z,99.90
2023-05-15T07:27:19.107Z,99.90
2023-05-15T07:29:48.080Z,99.90
2023-05-15T07:32:16.665Z,99.90
2023-05-15T07:34:45.124Z,99.90
2023-05-15T07:37:17.118Z,99.90
2023-05-15T07:39:47.388Z,99.90
2023-05-15T07:42:15.965Z,99.90
2023-05-15T07:44:45.424Z,99.90
2023-05-15T07:47:15.317Z,99.90
2023-05-15T07:49:44.261Z,99.90
2023-05-15T07:52:12.569Z,99.90
2023-05-15T07:54:41.805Z,99.90
2023-05-15T07:57:13.235Z,99.90
2023-05-15T07:59:42.096Z,99.90
2023-05-15T08:02:10.953Z,99.90
2023-05-15T08:04:42.320Z,99.90
2023-05-15T08:07:10.683Z,99.90
2023-05-15T08:09:38.987Z,99.90
2023-05-15T08:12:21.947Z,99.90
2023-05-15T08:14:51.314Z,99.90
2023-05-15T08:17:19.664Z,99.90
2023-05-15T08:19:48.573Z,99.90
2023-05-15T08:22:17.044Z,99.90
2023-05-15T08:24:45.558Z,99.90
2023-05-15T08:27:13.962Z,99.90
2023-05-15T08:29:43.676Z,99.90
2023-05-15T08:32:11.947Z,99.90
2023-05-15T08:34:40.306Z,99.90
2023-05-15T08:37:08.608Z,99.90
2023-05-15T08:39:36.962Z,99.90
2023-05-15T08:42:10.530Z,99.90
2023-05-15T08:44:39.884Z,99.90
2023-05-15T08:47:10.156Z,99.90
2023-05-15T08:49:49.305Z,99.90
2023-05-15T08:52:18.011Z,99.90
2023-05-15T08:54:48.561Z,99.90
2023-05-15T08:57:18.205Z,99.90
2023-05-15T08:59:47.765Z,99.90
2023-05-15T09:02:18.382Z,99.90
2023-05-15T09:04:46.722Z,99.90
2023-05-15T09:07:16.438Z,99.90
2023-05-15T09:09:46.398Z,99.90
2023-05-15T09:12:16.959Z,99.90
2023-05-15T09:14:45.820Z,99.90
2023-05-15T09:17:14.578Z,99.90
2023-05-15T09:19:44.882Z,99.90
2023-05-15T09:22:18.274Z,99.90
2023-05-15T09:24:48.389Z,99.90
2023-05-15T09:27:16.793Z,99.90
2023-05-15T09:29:45.603Z,99.90
2023-05-15T09:32:15.910Z,99.90
2023-05-15T09:34:46.629Z,99.90
2023-05-15T09:37:30.037Z,99.90
2023-05-15T09:40:10.960Z,99.90
2023-05-15T09:42:39.787Z,99.90
2023-05-15T09:45:18.864Z,99.90
2023-05-15T09:47:48.003Z,99.90
2023-05-15T09:50:22.994Z,99.90
2023-05-15T09:52:51.825Z,99.90
2023-05-15T09:55:23.004Z,99.90
2023-05-15T09:58:09.401Z,99.90
2023-05-15T10:00:47.743Z,99.90
2023-05-15T10:03:20.048Z,99.90
2023-05-15T10:05:49.984Z,99.90
2023-05-15T10:08:28.571Z,99.90
2023-05-15T10:10:59.917Z,99.90
2023-05-15T10:13:28.975Z,99.90
2023-05-15T10:15:58.818Z,99.90
2023-05-15T10:18:31.640Z,99.90
2023-05-15T10:21:04.783Z,99.90
2023-05-15T10:23:35.579Z,99.90
2023-05-15T10:26:09.821Z,99.90
2023-05-15T10:28:39.526Z,99.90
2023-05-15T10:31:09.129Z,99.90
2023-05-15T10:33:38.202Z,99.90
2023-05-15T10:36:09.835Z,99.90
2023-05-15T10:38:39.511Z,99.90
2023-05-15T10:41:17.726Z,99.90
2023-05-15T10:43:47.992Z,99.90
2023-05-15T10:46:17.364Z,99.90
2023-05-15T10:48:45.817Z,99.90
2023-05-15T10:51:19.739Z,99.90
2023-05-15T10:53:48.987Z,99.10
2023-05-15T10:56:17.997Z,97.50
2023-05-15T10:58:48.458Z,97.30
2023-05-15T11:01:35.383Z,95.70
2023-05-15T11:04:14.607Z,95.40
2023-05-15T11:06:46.186Z,95.70
2023-05-15T11:09:39.796Z,95.40
2023-05-15T11:12:09.926Z,95.50
2023-05-15T11:14:39.889Z,95.10
2023-05-15T11:17:09.562Z,95.10
2023-05-15T11:19:59.106Z,94.80
2023-05-15T11:22:33.509Z,96.60
2023-05-15T11:25:05.672Z,97.00
2023-05-15T11:27:39.546Z,97.60
2023-05-15T11:30:13.897Z,98.00
2023-05-15T11:32:49.237Z,97.90
2023-05-15T11:35:22.293Z,98.70
2023-05-15T11:37:54.413Z,98.50
2023-05-15T11:40:25.348Z,99.20
2023-05-15T11:43:04.900Z,99.90
2023-05-15T11:45:34.942Z,99.00
2023-05-15T11:48:06.089Z,97.40
2023-05-15T11:50:36.041Z,97.40
2023-05-15T11:53:07.451Z,97.30
2023-05-15T11:55:37.487Z,96.10
2023-05-15T11:58:06.897Z,94.70
2023-05-15T12:00:35.334Z,94.10
2023-05-15T12:03:04.852Z,93.30
2023-05-15T12:05:33.312Z,93.20
2023-05-15T12:08:03.369Z,92.80
2023-05-15T12:10:33.338Z,92.30
2023-05-15T12:13:01.660Z,92.00
2023-05-15T12:15:29.967Z,92.10
2023-05-15T12:17:58.391Z,92.60
2023-05-15T12:20:27.413Z,92.60
2023-05-15T12:22:55.914Z,93.40
2023-05-15T12:25:24.425Z,94.30
2023-05-15T12:27:54.419Z,94.00
2023-05-15T12:30:23.428Z,94.70
2023-05-15T12:32:52.137Z,94.70
2023-05-15T12:35:20.857Z,96.00
2023-05-15T12:37:49.204Z,98.50
2023-05-15T12:40:22.239Z,99.90
2023-05-15T12:42:55.617Z,99.90
2023-05-15T12:45:24.558Z,99.90
2023-05-15T12:47:53.022Z,99.90
2023-05-15T12:50:22.781Z,99.90
2023-05-15T12:52:55.263Z,99.90
2023-05-15T12:55:28.325Z,99.90
2023-05-15T12:58:02.426Z,99.90
2023-05-15T13:00:32.133Z,99.90
2023-05-15T13:03:00.525Z,99.90
2023-05-15T13:05:29.889Z,99.90
2023-05-15T13:08:00.267Z,99.90
2023-05-15T13:10:28.922Z,99.90
2023-05-15T13:12:59.066Z,99.90
2023-05-15T13:15:30.302Z,99.90
2023-05-15T13:18:02.568Z,99.90
2023-05-15T13:20:34.124Z,99.90
2023-05-15T13:23:02.973Z,99.90
2023-05-15T13:25:32.248Z,99.90
2023-05-15T13:28:05.291Z,99.90
2023-05-15T13:30:34.463Z,99.90
2023-05-15T13:33:03.656Z,99.90
2023-05-15T13:35:32.416Z,99.90
2023-05-15T13:38:00.688Z,99.90
2023-05-15T13:40:29.094Z,99.90
2023-05-15T13:42:57.388Z,99.90
2023-05-15T13:45:27.057Z,99.90
2023-05-15T13:47:56.087Z,99.90
2023-05-15T13:50:24.723Z,99.90
2023-05-15T13:52:54.532Z,99.90
2023-05-15T13:55:23.399Z,99.90
2023-05-15T13:57:52.261Z,99.90
2023-05-15T14:00:21.827Z,99.90
2023-05-15T14:02:51.567Z,99.90
2023-05-15T14:05:19.942Z,99.60
2023-05-15T14:07:48.278Z,99.50
2023-05-15T14:10:16.604Z,99.90
2023-05-15T14:12:46.678Z,98.40
2023-05-15T14:15:14.993Z,96.10
2023-05-15T14:17:44.241Z,96.50
2023-05-15T14:20:14.094Z,96.90
2023-05-15T14:22:42.414Z,94.80
2023-05-15T14:25:11.120Z,93.30
2023-05-15T14:27:39.504Z,93.20
2023-05-15T14:30:09.186Z,91.60
2023-05-15T14:32:37.463Z,90.00
2023-05-15T14:35:06.553Z,85.30
2023-05-15T14:37:37.079Z,83.10
2023-05-15T14:40:07.096Z,82.40
2023-05-15T14:42:35.445Z,79.20
2023-05-15T14:45:05.082Z,77.20
2023-05-15T14:47:33.852Z,78.90
2023-05-15T14:50:02.348Z,81.20
2023-05-15T14:52:30.751Z,85.80
2023-05-15T14:57:36.063Z,89.40
2023-05-15T15:00:06.175Z,90.30
2023-05-15T15:02:34.899Z,91.50
2023-05-15T15:05:04.655Z,92.00
2023-05-15T15:07:53.169Z,93.00
2023-05-15T15:10:23.270Z,93.60
2023-05-15T15:12:52.308Z,94.10
2023-05-15T15:15:20.942Z,94.00
2023-05-15T15:17:49.318Z,94.10
2023-05-15T15:20:18.843Z,95.30
2023-05-15T15:22:47.556Z,95.50
2023-05-15T15:25:16.106Z,94.20
2023-05-15T15:27:46.339Z,93.90
2023-05-15T15:30:15.082Z,95.00
2023-05-15T15:32:44.363Z,95.90
2023-05-15T15:35:13.021Z,97.00
2023-05-15T15:37:41.348Z,98.60
2023-05-15T15:40:11.156Z,99.20
2023-05-15T15:42:39.527Z,99.90
2023-05-15T15:45:09.987Z,99.90
2023-05-15T15:47:38.284Z,99.90
2023-05-15T15:50:07.362Z,99.90
2023-05-15T15:52:35.616Z,99.90
2023-05-15T15:55:04.104Z,99.90
2023-05-15T15:57:32.331Z,99.80
2023-05-15T16:00:00.613Z,99.90
2023-05-15T16:02:30.347Z,99.90
2023-05-15T16:04:58.751Z,98.80
2023-05-15T16:07:27.048Z,99.90
2023-05-15T16:10:10.037Z,98.40
2023-05-15T16:12:42.551Z,98.90
2023-05-15T16:17:44.397Z,97.50
2023-05-15T16:20:13.252Z,97.10
2023-05-15T16:22:43.134Z,97.80
2023-05-15T16:25:11.594Z,96.50
2023-05-15T16:27:39.954Z,96.30
2023-05-15T16:30:11.651Z,96.20
2023-05-15T16:32:41.515Z,99.00
2023-05-15T16:35:11.448Z,99.60
2023-05-15T16:37:40.605Z,98.10
2023-05-15T16:40:10.016Z,98.20
2023-05-15T16:42:38.893Z,97.70
2023-05-15T16:45:08.805Z,97.80
2023-05-15T16:47:38.464Z,97.30
2023-05-15T16:50:07.786Z,97.40
2023-05-15T16:52:39.029Z,97.70
2023-05-15T16:55:08.365Z,98.20
2023-05-15T16:57:36.644Z,97.80
2023-05-15T17:00:05.954Z,97.20
2023-05-15T17:02:34.426Z,97.70
2023-05-15T17:05:03.294Z,97.00
2023-05-15T17:07:31.792Z,96.80
2023-05-15T17:10:01.561Z,96.30
2023-05-15T17:12:29.856Z,96.10
2023-05-15T17:14:59.882Z,95.70
2023-05-15T17:17:28.953Z,95.60
2023-05-15T17:19:58.968Z,95.80
2023-05-15T17:22:29.102Z,96.20
2023-05-15T17:24:57.462Z,96.10
2023-05-15T17:27:27.240Z,96.10
2023-05-15T17:29:55.695Z,96.00
2023-05-15T17:32:24.218Z,96.20
2023-05-15T17:34:52.714Z,96.40
2023-05-15T17:37:21.069Z,96.10
2023-05-15T17:39:50.542Z,95.60
2023-05-15T17:42:19.673Z,96.40
2023-05-15T17:44:49.631Z,97.10
2023-05-15T17:47:18.233Z,97.50
2023-05-15T17:49:46.536Z,98.00
2023-05-15T17:55:53.813Z,98.20
2023-05-15T17:58:22.364Z,99.30
2023-05-15T18:00:52.761Z,99.90
2023-05-15T18:03:21.287Z,99.90
2023-05-15T18:05:49.695Z,99.90
2023-05-15T18:08:18.059Z,99.90
2023-05-15T18:10:46.841Z,99.90
2023-05-15T18:13:16.149Z,99.90
2023-05-15T18:15:44.752Z,99.90
2023-05-15T18:18:14.692Z,99.90
2023-05-15T18:20:43.144Z,99.50
2023-05-15T18:23:11.392Z,99.90
2023-05-15T18:25:39.825Z,99.90
2023-05-15T18:28:08.286Z,99.90
2023-05-15T18:30:36.682Z,99.90
2023-05-15T18:33:05.213Z,99.90
2023-05-15T18:35:35.937Z,99.90
2023-05-15T18:38:04.933Z,99.90
2023-05-15T18:40:33.278Z,99.90
2023-05-15T18:43:01.640Z,99.10
2023-05-15T18:45:30.398Z,98.10
2023-05-15T18:47:58.896Z,98.20
2023-05-15T18:50:27.735Z,99.90
2023-05-15T18:52:57.699Z,99.90
2023-05-15T18:55:27.619Z,99.90
2023-05-15T18:57:56.053Z,99.90
2023-05-15T19:00:37.227Z,99.90
2023-05-15T19:03:07.037Z,99.40
2023-05-15T19:05:35.519Z,99.90
2023-05-15T19:08:05.396Z,98.70
2023-05-15T19:10:33.741Z,97.50
2023-05-15T19:13:02.103Z,97.30
2023-05-15T19:15:30.366Z,97.10
2023-05-15T19:17:58.823Z,97.00
2023-05-15T19:20:27.420Z,97.10
2023-05-15T19:22:55.998Z,97.10
2023-05-15T19:25:26.060Z,97.20
2023-05-15T19:27:56.157Z,97.30
2023-05-15T19:30:24.703Z,97.40
2023-05-15T19:32:53.322Z,97.50
2023-05-15T19:35:21.641Z,97.80
2023-05-15T19:37:50.207Z,97.60
2023-05-15T19:40:18.866Z,97.40
2023-05-15T19:42:48.566Z,98.00
2023-05-15T19:45:17.094Z,97.60
2023-05-15T19:47:45.449Z,97.40
2023-05-15T19:50:14.006Z,97.20
2023-05-15T19:52:45.211Z,97.40
2023-05-15T19:55:14.105Z,96.90
2023-05-15T19:57:42.719Z,96.70
2023-05-15T20:00:14.120Z,96.90
2023-05-15T20:02:42.725Z,96.50
2023-05-15T20:05:11.397Z,96.30
2023-05-15T20:07:39.844Z,96.00
2023-05-15T20:10:09.797Z,95.70
2023-05-15T20:12:39.697Z,95.80
2023-05-15T20:15:09.409Z,95.80
2023-05-15T20:17:39.154Z,95.50
2023-05-15T20:20:11.000Z,95.40
2023-05-15T20:22:39.627Z,95.50
2023-05-15T20:25:08.582Z,95.70
2023-05-15T20:27:36.941Z,95.50
2023-05-15T20:30:06.328Z,95.80
2023-05-15T20:32:34.830Z,96.00
2023-05-15T20:35:05.227Z,96.10
2023-05-15T20:37:34.548Z,96.10
2023-05-15T20:40:05.329Z,95.80
2023-05-15T20:42:33.806Z,95.90
2023-05-15T20:45:02.590Z,95.80
2023-05-15T20:47:31.101Z,96.10
2023-05-15T20:49:59.511Z,95.90
2023-05-15T20:52:29.212Z,96.00
2023-05-15T20:54:57.629Z,96.00
2023-05-15T20:57:26.036Z,96.00
2023-05-15T20:59:54.299Z,96.20
2023-05-15T21:02:22.651Z,96.30
2023-05-15T21:04:50.952Z,95.40
2023-05-15T21:07:19.271Z,94.00
2023-05-15T21:09:49.013Z,93.90
2023-05-15T21:12:17.316Z,93.90
2023-05-15T21:14:45.678Z,94.50
2023-05-15T21:17:14.168Z,95.00
2023-05-15T21:19:42.801Z,94.60
2023-05-15T21:22:11.093Z,94.60
2023-05-15T21:24:39.403Z,94.50
2023-05-15T21:27:09.231Z,94.20
2023-05-15T21:29:37.654Z,94.80
2023-05-15T21:32:07.394Z,95.80
2023-05-15T21:34:35.654Z,94.60
2023-05-15T21:37:04.213Z,94.40
2023-05-15T21:39:32.523Z,95.10
2023-05-15T21:42:00.870Z,95.80
2023-05-15T21:44:30.524Z,95.20
2023-05-15T21:46:58.964Z,94.90
2023-05-15T21:49:27.281Z,94.60
2023-05-15T21:51:55.679Z,94.60
2023-05-15T21:54:23.987Z,94.70
2023-05-15T21:56:53.216Z,94.50
2023-05-15T21:59:21.751Z,95.60
2023-05-15T22:02:16.815Z,96.10
2023-05-15T22:04:45.160Z,96.50
2023-05-15T22:07:14.951Z,96.30
2023-05-15T22:09:45.032Z,96.10
2023-05-15T22:12:13.541Z,96.20
2023-05-15T22:14:54.419Z,95.70
2023-05-15T22:17:29.264Z,95.80
2023-05-15T22:20:07.018Z,96.00
2023-05-15T22:22:36.636Z,95.00
2023-05-15T22:25:05.474Z,94.90
2023-05-15T22:27:34.136Z,96.30
2023-05-15T22:30:02.924Z,97.30
2023-05-15T22:32:32.844Z,98.10
2023-05-15T22:35:02.171Z,99.10
2023-05-15T22:37:30.499Z,99.10
2023-05-15T22:39:58.778Z,98.80
2023-05-15T22:42:27.892Z,99.10
2023-05-15T22:44:57.664Z,98.60
2023-05-15T22:47:28.431Z,98.60
2023-05-15T22:49:58.294Z,99.90
2023-05-15T22:52:26.882Z,99.60
2023-05-15T22:54:55.279Z,99.90
2023-05-15T22:57:24.543Z,99.90
2023-05-15T22:59:52.844Z,99.90
2023-05-15T23:02:21.273Z,99.90
2023-05-15T23:04:49.677Z,99.90
2023-05-15T23:07:19.383Z,99.90
2023-05-15T23:09:47.680Z,99.90
2023-05-15T23:12:16.045Z,99.90
2023-05-15T23:14:44.332Z,99.90
2023-05-15T23:17:13.604Z,99.90
2023-05-15T23:19:42.083Z,99.90
2023-05-15T23:22:10.400Z,99.90
2023-05-15T23:24:40.065Z,99.90
2023-05-15T23:27:08.455Z,99.90
2023-05-15T23:29:37.254Z,99.90
2023-05-15T23:32:06.351Z,99.90
2023-05-15T23:34:34.695Z,99.90
2023-05-15T23:37:03.089Z,99.90
2023-05-15T23:39:31.448Z,99.90
2023-05-15T23:42:01.181Z,99.90
2023-05-15T23:44:29.519Z,99.90
2023-05-15T23:46:57.876Z,99.90
2023-05-15T23:49:26.317Z,99.90
2023-05-15T23:51:54.639Z,99.90
2023-05-15T23:54:22.991Z,99.90
2023-05-15T23:56:51.304Z,99.90
2023-05-15T23:59:20.947Z,99.90
